Time;durP1;ratioP1;P1;durP2;ratioP2;P2;SDS_P1;SDS_P2;PMS_P1;PMS_P2;Temp;Humidity;BMP_temperature;BMP_pressure;BME280_temperature;BME280_humidity;BME280_pressure;Samples;Min_cycle;Max_cycle;Signal;HPM_P1;HPM_P2
2023/09/09 00:02:31;;;;;;;9.40;8.35;;;22.90;61.20;;;;;;5025185;28;20072;-57
2023/09/09 00:04:57;;;;;;;8.93;8.13;;;22.90;62.00;;;;;;5026680;28;20473;-55
2023/09/09 00:07:24;;;;;;;8.13;7.50;;;22.90;61.50;;;;;;5027220;28;20038;-57
2023/09/09 00:09:51;;;;;;;10.57;9.48;;;22.90;61.60;;;;;;5029054;28;20048;-55
2023/09/09 00:12:18;;;;;;;9.95;8.57;;;22.90;62.20;;;;;;5027116;28;20056;-56
2023/09/09 00:14:48;;;;;;;10.52;9.52;;;22.90;61.80;;;;;;5028323;28;20103;-56
2023/09/09 00:17:17;;;;;;;14.25;10.00;;;22.80;61.70;;;;;;5027634;28;20049;-57
2023/09/09 00:19:45;;;;;;;10.45;9.45;;;22.80;62.40;;;;;;5027875;28;20041;-55
2023/09/09 00:22:11;;;;;;;11.15;9.95;;;22.80;62.30;;;;;;5027528;28;20061;-54
2023/09/09 00:24:38;;;;;;;10.40;9.40;;;22.80;61.90;;;;;;5027169;28;20088;-56
2023/09/09 00:27:07;;;;;;;10.98;9.98;;;22.80;61.70;;;;;;5027505;28;20584;-55
2023/09/09 00:29:36;;;;;;;9.25;8.45;;;22.80;61.90;;;;;;5029171;28;20092;-56
2023/09/09 00:32:06;;;;;;;10.40;9.40;;;22.70;61.70;;;;;;5025292;28;20050;-56
2023/09/09 00:34:34;;;;;;;10.27;9.38;;;22.70;61.70;;;;;;5027059;28;20511;-55
2023/09/09 00:37:06;;;;;;;10.93;9.70;;;22.70;61.60;;;;;;5025238;28;20050;-56
2023/09/09 00:39:38;;;;;;;9.95;9.15;;;22.60;61.60;;;;;;5028941;28;20041;-57
2023/09/09 00:42:07;;;;;;;9.75;8.85;;;22.60;61.60;;;;;;5009903;28;20144;-55
2023/09/09 00:44:35;;;;;;;9.23;8.40;;;22.60;61.60;;;;;;5010174;28;20049;-57
2023/09/09 00:47:04;;;;;;;9.43;8.63;;;22.60;61.40;;;;;;5026616;28;20065;-55
2023/09/09 00:49:34;;;;;;;9.98;8.98;;;22.50;61.40;;;;;;5024617;28;20037;-57
2023/09/09 00:52:01;;;;;;;9.75;8.70;;;22.50;61.30;;;;;;5026557;28;20117;-56
2023/09/09 00:54:32;;;;;;;9.93;9.02;;;22.40;61.30;;;;;;5027576;28;20103;-57
2023/09/09 00:57:04;;;;;;;;;;;22.40;61.40;;;;;;5027076;28;20052;-55
2023/09/09 00:59:32;;;;;;;8.93;8.10;;;22.40;60.80;;;;;;5027955;28;20482;-56
2023/09/09 01:02:03;;;;;;;9.85;8.85;;;22.30;61.00;;;;;;5026180;28;20052;-55
2023/09/09 01:04:35;;;;;;;9.07;8.18;;;22.30;61.20;;;;;;5026651;28;20044;-57
2023/09/09 01:07:03;;;;;;;10.27;9.05;;;22.30;61.30;;;;;;5010487;28;20129;-55
2023/09/09 01:09:34;;;;;;;9.63;8.68;;;22.20;61.40;;;;;;5025458;28;20570;-56
2023/09/09 01:12:11;;;;;;;9.60;8.70;;;22.20;61.40;;;;;;5026379;28;20038;-56
2023/09/09 01:14:40;;;;;;;10.48;9.18;;;22.10;61.70;;;;;;5027496;28;20041;-55
2023/09/09 01:17:10;;;;;;;9.80;8.80;;;22.10;61.60;;;;;;5026873;28;20131;-57
2023/09/09 01:19:37;;;;;;;10.00;8.93;;;22.10;61.80;;;;;;5028109;28;20042;-54
2023/09/09 01:22:14;;;;;;;10.65;9.15;;;22.00;62.00;;;;;;5024691;28;20574;-54
2023/09/09 01:24:45;;;;;;;9.95;8.68;;;22.00;62.20;;;;;;5028682;28;20120;-56
2023/09/09 01:27:11;;;;;;;10.52;7.93;;;22.00;62.30;;;;;;5026018;28;20048;-54
2023/09/09 01:29:41;;;;;;;9.13;8.27;;;22.00;62.00;;;;;;5027795;28;20124;-56
2023/09/09 01:32:13;;;;;;;9.18;8.38;;;21.90;62.00;;;;;;5025365;28;20060;-54
2023/09/09 01:34:43;;;;;;;9.35;8.23;;;21.90;62.10;;;;;;5010545;28;20074;-56
2023/09/09 01:37:10;;;;;;;8.88;7.97;;;21.90;62.80;;;;;;5008531;28;21035;-56
2023/09/09 01:39:36;;;;;;;9.32;8.48;;;21.90;62.20;;;;;;5030109;28;20523;-56
2023/09/09 01:42:06;;;;;;;9.90;9.00;;;21.80;62.50;;;;;;5027894;28;20503;-57
2023/09/09 01:44:33;;;;;;;9.30;8.40;;;21.80;62.80;;;;;;5025202;28;20049;-56
2023/09/09 01:47:00;;;;;;;10.45;9.35;;;21.80;63.10;;;;;;5030173;28;20204;-58
2023/09/09 01:49:27;;;;;;;11.52;9.30;;;21.80;63.20;;;;;;5030311;28;20045;-57
2023/09/09 01:51:54;;;;;;;11.70;8.90;;;21.80;63.00;;;;;;5029090;28;20049;-57
2023/09/09 01:54:20;;;;;;;9.27;8.32;;;21.80;62.90;;;;;;5031042;28;20038;-56
2023/09/09 01:56:49;;;;;;;9.55;8.65;;;21.70;62.90;;;;;;5012613;28;20083;-56
2023/09/09 01:59:18;;;;;;;9.40;8.57;;;21.70;62.70;;;;;;5012262;28;20984;-56
2023/09/09 02:01:48;;;;;;;10.10;9.13;;;21.70;62.70;;;;;;5010486;28;20050;-55
2023/09/09 02:04:15;;;;;;;9.65;8.68;;;21.70;62.60;;;;;;5030151;28;20041;-57
2023/09/09 02:06:46;;;;;;;9.85;8.85;;;21.70;62.60;;;;;;5030369;28;20068;-55
2023/09/09 02:09:14;;;;;;;9.82;8.13;;;21.70;62.70;;;;;;5030464;28;20062;-56
2023/09/09 02:11:41;;;;;;;9.30;8.50;;;21.60;62.70;;;;;;5028814;28;20080;-57
2023/09/09 02:14:10;;;;;;;9.65;8.77;;;21.60;62.70;;;;;;5012437;28;20049;-56
2023/09/09 02:16:36;;;;;;;8.80;8.10;;;21.60;62.60;;;;;;5029454;28;20041;-55
2023/09/09 02:19:04;;;;;;;9.07;8.35;;;21.60;62.60;;;;;;5029127;28;20060;-55
2023/09/09 02:21:33;;;;;;;9.27;7.95;;;21.50;62.70;;;;;;5028193;28;20033;-56
2023/09/09 02:24:00;;;;;;;10.93;8.45;;;21.50;62.70;;;;;;5012922;28;20049;-55
2023/09/09 02:26:26;;;;;;;9.27;8.25;;;21.50;62.80;;;;;;5012074;28;20103;-57
2023/09/09 02:28:53;;;;;;;7.30;6.70;;;21.50;62.80;;;;;;5030258;28;20495;-57
2023/09/09 02:31:20;;;;;;;9.23;7.88;;;21.40;62.60;;;;;;5031034;28;20121;-55
2023/09/09 02:33:51;;;;;;;8.70;8.00;;;21.40;62.70;;;;;;5009517;28;20049;-57
2023/09/09 02:36:18;;;;;;;8.77;7.97;;;21.40;62.90;;;;;;5011732;28;20041;-56
2023/09/09 02:38:44;;;;;;;8.73;7.93;;;21.40;62.90;;;;;;5012972;28;20515;-55
2023/09/09 02:41:11;;;;;;;9.18;8.38;;;21.40;63.10;;;;;;5028049;28;20092;-56
2023/09/09 02:43:38;;;;;;;11.73;9.13;;;21.40;63.00;;;;;;5028993;28;20523;-54
2023/09/09 02:46:08;;;;;;;11.48;7.95;;;21.30;63.10;;;;;;5029073;28;20103;-57
2023/09/09 02:48:36;;;;;;;9.05;8.25;;;21.40;63.10;;;;;;5011672;28;20050;-56
2023/09/09 02:51:10;;;;;;;8.68;7.32;;;21.30;63.10;;;;;;5023967;28;20049;-55
2023/09/09 02:53:37;;;;;;;8.82;7.70;;;21.30;63.20;;;;;;5012570;28;20508;-54
2023/09/09 02:56:04;;;;;;;8.68;7.82;;;21.30;63.40;;;;;;5026378;28;20452;-56
2023/09/09 02:58:31;;;;;;;8.98;8.07;;;21.30;63.40;;;;;;5029847;28;20697;-56
2023/09/09 03:01:06;;;;;;;9.52;8.15;;;21.30;63.40;;;;;;5012522;28;20411;-55
2023/09/09 03:03:35;;;;;;;8.43;7.53;;;21.20;63.70;;;;;;5006862;28;20107;-55
2023/09/09 03:06:05;;;;;;;9.18;8.30;;;21.20;63.50;;;;;;5028305;28;20038;-54
2023/09/09 03:08:33;;;;;;;9.20;8.32;;;21.20;63.50;;;;;;5030116;28;20092;-54
2023/09/09 03:11:04;;;;;;;8.98;8.05;;;21.20;63.70;;;;;;5011782;28;20462;-56
2023/09/09 03:13:38;;;;;;;8.95;8.05;;;21.20;63.60;;;;;;5029061;28;20072;-54
2023/09/09 03:16:08;;;;;;;9.73;8.18;;;21.20;63.60;;;;;;5029715;28;20519;-57
2023/09/09 03:18:37;;;;;;;9.38;8.35;;;21.20;63.70;;;;;;5012207;28;20103;-55
2023/09/09 03:21:05;;;;;;;10.80;7.45;;;21.20;63.70;;;;;;5025903;28;20065;-57
2023/09/09 03:23:34;;;;;;;7.95;7.22;;;21.10;63.70;;;;;;5029373;28;20068;-55
2023/09/09 03:26:04;;;;;;;8.38;7.57;;;21.10;63.70;;;;;;5028450;28;20100;-55
2023/09/09 03:28:31;;;;;;;7.85;6.78;;;21.10;63.70;;;;;;5028799;28;20140;-55
2023/09/09 03:30:59;;;;;;;8.60;7.80;;;21.10;63.70;;;;;;5020329;28;20108;-57
2023/09/09 03:33:30;;;;;;;10.23;7.55;;;21.10;63.80;;;;;;5021076;28;20141;-56
2023/09/09 03:35:59;;;;;;;8.18;7.32;;;21.00;63.70;;;;;;5029143;28;20068;-56
2023/09/09 03:38:25;;;;;;;9.27;8.35;;;21.00;63.80;;;;;;5027608;28;20065;-57
2023/09/09 03:40:54;;;;;;;9.43;8.43;;;21.00;63.80;;;;;;5029257;28;20389;-55
2023/09/09 03:43:21;;;;;;;8.70;7.78;;;21.00;63.80;;;;;;5027260;28;20045;-56
2023/09/09 03:45:56;;;;;;;9.57;8.43;;;21.00;64.00;;;;;;5011293;28;20049;-56
2023/09/09 03:48:26;;;;;;;9.32;8.52;;;21.00;64.30;;;;;;5010748;28;20160;-56
2023/09/09 03:51:00;;;;;;;8.38;7.57;;;21.00;64.20;;;;;;5029034;28;20092;-55
2023/09/09 03:53:27;;;;;;;8.70;7.95;;;21.00;64.40;;;;;;5026638;28;20419;-56
2023/09/09 03:55:58;;;;;;;8.20;7.40;;;21.00;64.00;;;;;;5028230;28;20037;-56
2023/09/09 03:58:25;;;;;;;8.75;7.85;;;20.90;64.10;;;;;;5028067;28;20091;-55
2023/09/09 04:01:05;;;;;;;8.80;7.90;;;20.90;64.00;;;;;;5010613;28;20061;-57
2023/09/09 04:03:36;;;;;;;9.38;8.27;;;20.90;64.60;;;;;;5024545;28;20054;-57
2023/09/09 04:06:06;;;;;;;9.32;7.95;;;20.90;64.10;;;;;;5011652;28;20048;-54
2023/09/09 04:08:36;;;;;;;9.32;8.00;;;20.90;64.10;;;;;;5021487;28;20048;-56
2023/09/09 04:11:08;;;;;;;8.50;7.80;;;20.90;64.20;;;;;;5025206;28;20038;-56
2023/09/09 04:13:37;;;;;;;9.98;7.80;;;20.80;64.20;;;;;;5027037;28;20048;-55
2023/09/09 04:16:09;;;;;;;8.70;7.97;;;20.80;64.10;;;;;;5011481;28;20041;-56
2023/09/09 04:18:36;;;;;;;9.40;8.50;;;20.80;64.20;;;;;;5011246;28;20104;-56
2023/09/09 04:21:15;;;;;;;8.85;7.75;;;20.80;64.30;;;;;;5005998;28;20053;-57
2023/09/09 04:23:42;;;;;;;8.55;7.80;;;20.80;64.20;;;;;;5028297;28;20037;-55
2023/09/09 04:26:11;;;;;;;9.02;7.85;;;20.80;64.30;;;;;;5028498;28;20516;-57
2023/09/09 04:28:40;;;;;;;9.05;7.78;;;20.70;64.20;;;;;;5027644;28;20504;-55
2023/09/09 04:31:09;;;;;;;9.00;8.10;;;20.80;64.30;;;;;;5027030;28;20088;-55
2023/09/09 04:33:39;;;;;;;8.65;7.78;;;20.80;64.40;;;;;;5027470;28;20041;-56
2023/09/09 04:36:07;;;;;;;8.13;7.43;;;20.70;64.50;;;;;;5010355;28;20088;-56
2023/09/09 04:38:39;;;;;;;9.13;8.32;;;20.70;64.40;;;;;;5027433;28;20060;-56
2023/09/09 04:41:08;;;;;;;9.30;7.93;;;20.70;64.40;;;;;;5027471;28;20099;-54
2023/09/09 04:43:39;;;;;;;8.63;7.80;;;20.70;64.40;;;;;;5028618;28;20419;-56
2023/09/09 04:46:10;;;;;;;8.00;7.38;;;20.70;64.50;;;;;;5027244;28;20041;-56
2023/09/09 04:48:37;;;;;;;9.40;8.50;;;20.70;64.60;;;;;;5028158;28;20033;-52
2023/09/09 04:51:03;;;;;;;8.43;7.60;;;20.70;64.60;;;;;;5011658;28;20045;-54
2023/09/09 04:53:31;;;;;;;9.80;8.90;;;20.70;64.70;;;;;;5028375;28;20069;-55
2023/09/09 04:56:04;;;;;;;8.88;7.97;;;20.60;64.70;;;;;;5010256;28;20107;-56
2023/09/09 04:58:33;;;;;;;8.38;7.57;;;20.60;64.70;;;;;;5026973;28;20049;-56
2023/09/09 05:01:03;;;;;;;8.70;7.82;;;20.60;64.70;;;;;;5027775;28;20101;-55
2023/09/09 05:03:33;;;;;;;8.30;7.55;;;20.60;64.70;;;;;;5026144;28;20041;-57
2023/09/09 05:06:02;;;;;;;9.40;7.82;;;20.60;65.00;;;;;;5028692;28;20498;-57
2023/09/09 05:08:30;;;;;;;8.77;7.65;;;20.60;64.90;;;;;;5025919;28;20455;-56
2023/09/09 05:10:59;;;;;;;8.80;7.95;;;20.50;64.80;;;;;;5028657;28;20084;-56
2023/09/09 05:13:28;;;;;;;8.07;7.40;;;20.50;65.10;;;;;;5029404;28;20429;-56
2023/09/09 05:15:58;;;;;;;8.52;7.72;;;20.50;65.00;;;;;;5015469;28;20095;-57
2023/09/09 05:18:25;;;;;;;8.15;7.38;;;20.50;65.00;;;;;;5031749;28;20041;-54
2023/09/09 05:20:54;;;;;;;8.73;7.93;;;20.50;65.10;;;;;;5015455;28;20048;-56
2023/09/09 05:23:21;;;;;;;9.20;8.40;;;20.50;65.00;;;;;;5012378;28;20045;-53
2023/09/09 05:25:48;;;;;;;8.90;8.10;;;20.50;65.20;;;;;;5013935;28;20128;-56
2023/09/09 05:28:15;;;;;;;10.18;9.18;;;20.50;65.20;;;;;;5029016;28;20144;-55
2023/09/09 05:30:42;;;;;;;9.88;9.07;;;20.50;65.30;;;;;;5031666;28;20045;-57
2023/09/09 05:33:11;;;;;;;10.57;9.57;;;20.50;65.50;;;;;;5028774;28;20132;-57
2023/09/09 05:35:38;;;;;;;11.20;9.40;;;20.50;65.70;;;;;;5014010;28;20042;-57
2023/09/09 05:38:05;;;;;;;10.13;8.93;;;20.50;65.80;;;;;;5031879;28;20041;-54
2023/09/09 05:40:35;;;;;;;9.90;9.00;;;20.60;66.00;;;;;;5030853;28;20527;-56
2023/09/09 05:43:04;;;;;;;9.88;8.90;;;20.60;66.10;;;;;;5031214;28;20426;-56
2023/09/09 05:45:31;;;;;;;9.27;8.38;;;20.60;66.10;;;;;;5030367;28;20052;-56
2023/09/09 05:48:06;;;;;;;9.38;8.25;;;20.60;66.30;;;;;;5031879;28;20041;-57
2023/09/09 05:50:36;;;;;;;10.45;9.18;;;20.60;66.30;;;;;;5031014;28;20053;-55
2023/09/09 05:53:05;;;;;;;10.63;9.53;;;20.70;66.50;;;;;;5031249;28;20057;-53
2023/09/09 05:55:32;;;;;;;10.18;8.65;;;20.70;66.50;;;;;;5029677;28;20136;-55
2023/09/09 05:57:59;;;;;;;10.02;9.02;;;20.70;66.70;;;;;;5030989;28;20049;-56
2023/09/09 06:00:25;;;;;;;9.38;8.57;;;20.70;66.70;;;;;;5028725;28;20499;-56
2023/09/09 06:02:52;;;;;;;11.32;8.75;;;20.80;66.90;;;;;;5029557;28;20048;-54
2023/09/09 06:05:23;;;;;;;10.20;9.15;;;20.80;67.00;;;;;;5027824;28;20099;-55
2023/09/09 06:07:50;;;;;;;9.63;8.63;;;20.80;67.10;;;;;;5029134;28;20045;-54
2023/09/09 06:10:20;;;;;;;9.38;8.52;;;20.90;67.30;;;;;;5012497;28;20041;-57
2023/09/09 06:12:46;;;;;;;9.77;8.77;;;20.90;67.40;;;;;;5028808;28;20411;-56
2023/09/09 06:15:14;;;;;;;9.88;8.90;;;20.90;67.60;;;;;;5010389;28;20049;-55
2023/09/09 06:17:41;;;;;;;10.13;9.13;;;21.00;67.70;;;;;;5030397;28;20030;-56
2023/09/09 06:20:09;;;;;;;10.68;9.57;;;21.00;67.80;;;;;;5012085;28;20049;-56
2023/09/09 06:22:44;;;;;;;10.73;9.73;;;21.00;68.00;;;;;;5024032;28;20049;-57
2023/09/09 06:25:11;;;;;;;11.55;10.45;;;21.10;68.00;;;;;;5028781;28;20057;-55
2023/09/09 06:27:38;;;;;;;10.65;9.68;;;21.10;68.30;;;;;;5011773;28;20041;-52
2023/09/09 06:30:05;;;;;;;11.85;10.75;;;21.20;68.40;;;;;;4995794;28;20132;-56
2023/09/09 06:32:32;;;;;;;16.67;12.75;;;21.20;68.70;;;;;;5022770;28;20072;-54
2023/09/09 06:34:59;;;;;;;13.55;12.25;;;21.20;68.80;;;;;;5025542;28;20052;-55
2023/09/09 06:37:26;;;;;;;12.38;11.18;;;21.30;69.00;;;;;;5009942;28;20102;-56
2023/09/09 06:39:53;;;;;;;13.30;12.05;;;21.40;69.20;;;;;;5020963;28;20454;-56
2023/09/09 06:42:21;;;;;;;13.85;12.23;;;21.40;69.30;;;;;;5000623;28;20128;-57
2023/09/09 06:44:51;;;;;;;13.95;12.65;;;21.50;69.60;;;;;;5006388;28;20042;-56
2023/09/09 06:47:17;;;;;;;13.02;11.52;;;21.50;69.40;;;;;;5027338;28;20061;-57
2023/09/09 06:49:44;;;;;;;13.07;11.77;;;21.60;69.60;;;;;;5030435;28;20041;-55
2023/09/09 06:52:11;;;;;;;13.63;12.35;;;21.60;69.50;;;;;;5010515;28;20499;-57
2023/09/09 06:54:37;;;;;;;16.08;12.55;;;21.70;69.60;;;;;;5031130;28;20462;-56
2023/09/09 06:57:04;;;;;;;14.52;12.93;;;21.70;69.60;;;;;;5011500;28;20049;-57
2023/09/09 06:59:31;;;;;;;14.77;13.20;;;21.80;69.70;;;;;;5027850;28;20057;-55
2023/09/09 07:01:58;;;;;;;12.13;10.93;;;21.80;69.70;;;;;;5026347;28;20037;-56
2023/09/09 07:04:25;;;;;;;14.90;13.18;;;21.90;69.70;;;;;;5022048;28;20117;-56
2023/09/09 07:06:54;;;;;;;13.93;12.52;;;22.00;69.80;;;;;;5027127;28;20045;-57
2023/09/09 07:09:38;;;;;;;14.45;11.93;;;22.00;70.00;;;;;;5024950;28;20045;-54
2023/09/09 07:12:05;;;;;;;15.27;13.20;;;22.10;69.70;;;;;;5018689;28;20455;-57
2023/09/09 07:14:32;;;;;;;14.07;12.45;;;22.10;69.80;;;;;;5015579;28;20044;-57
2023/09/09 07:17:01;;;;;;;15.88;13.18;;;22.10;69.80;;;;;;5023957;28;20049;-55
2023/09/09 07:19:28;;;;;;;17.58;15.00;;;22.20;70.10;;;;;;5015772;28;20081;-56
2023/09/09 07:21:55;;;;;;;16.65;14.93;;;22.20;70.50;;;;;;5022693;28;20061;-55
2023/09/09 07:24:21;;;;;;;19.65;17.08;;;22.30;70.60;;;;;;5027243;28;20518;-55
2023/09/09 07:26:48;;;;;;;18.85;17.05;;;22.40;71.20;;;;;;5019548;28;20041;-56
2023/09/09 07:29:15;;;;;;;17.67;15.80;;;22.50;71.70;;;;;;5026091;28;20041;-56
2023/09/09 07:31:41;;;;;;;19.35;17.15;;;22.50;71.30;;;;;;5022600;28;20038;-55
2023/09/09 07:34:08;;;;;;;22.60;19.30;;;22.60;71.60;;;;;;5022497;28;20064;-56
2023/09/09 07:36:35;;;;;;;25.52;19.58;;;22.70;71.80;;;;;;5022710;28;20562;-56
2023/09/09 07:39:02;;;;;;;22.92;20.55;;;22.80;72.10;;;;;;5018824;28;20038;-56
2023/09/09 07:41:28;;;;;;;26.73;20.13;;;22.90;72.20;;;;;;5026526;28;20046;-57
2023/09/09 07:43:55;;;;;;;26.27;21.90;;;23.00;72.10;;;;;;5028551;28;20057;-57
2023/09/09 07:46:23;;;;;;;22.38;18.67;;;23.00;72.10;;;;;;5029602;28;20064;-54
2023/09/09 07:48:50;;;;;;;24.08;20.88;;;23.10;71.80;;;;;;5021996;28;20040;-56
2023/09/09 07:51:16;;;;;;;24.42;21.95;;;23.20;72.30;;;;;;5026410;28;20067;-56
2023/09/09 07:53:43;;;;;;;25.80;22.38;;;23.30;72.30;;;;;;5024625;28;20046;-54
2023/09/09 07:56:10;;;;;;;23.63;21.25;;;23.40;72.10;;;;;;5030465;28;20591;-57
2023/09/09 07:58:39;;;;;;;25.42;21.02;;;23.50;72.00;;;;;;5028356;28;20046;-57
2023/09/09 08:01:09;;;;;;;24.20;21.35;;;23.60;72.00;;;;;;5028383;28;20120;-56
2023/09/09 08:03:36;;;;;;;30.92;22.63;;;23.60;72.00;;;;;;5026178;28;20045;-57
2023/09/09 08:06:10;;;;;;;25.27;21.33;;;23.70;71.60;;;;;;5029541;28;20044;-57
2023/09/09 08:08:36;;;;;;;29.42;22.33;;;23.80;71.80;;;;;;5029288;28;20061;-57
2023/09/09 08:11:10;;;;;;;23.88;21.30;;;23.90;71.30;;;;;;5028470;28;20064;-55
2023/09/09 08:13:36;;;;;;;23.50;21.13;;;24.00;71.60;;;;;;5029142;28;20474;-56
2023/09/09 08:16:06;;;;;;;24.58;21.67;;;24.00;71.30;;;;;;5029680;28;20433;-57
2023/09/09 08:18:37;;;;;;;26.15;23.17;;;24.10;71.30;;;;;;5028787;28;20095;-57
2023/09/09 08:21:04;;;;;;;26.65;23.52;;;24.20;71.60;;;;;;5028039;28;20065;-57
2023/09/09 08:23:33;;;;;;;27.40;23.95;;;24.20;71.50;;;;;;5028595;28;20087;-56
2023/09/09 08:25:59;;;;;;;28.70;25.65;;;24.30;71.40;;;;;;5028845;28;20037;-56
2023/09/09 08:28:26;;;;;;;29.75;25.98;;;24.30;71.20;;;;;;5028347;28;20041;-57
2023/09/09 08:31:01;;;;;;;27.85;23.60;;;24.40;71.20;;;;;;5025226;28;20112;-56
2023/09/09 08:33:28;;;;;;;25.85;23.17;;;24.50;71.40;;;;;;5024065;28;20041;-57
2023/09/09 08:35:59;;;;;;;25.85;23.02;;;24.50;71.30;;;;;;5026742;28;20045;-55
2023/09/09 08:38:26;;;;;;;26.90;24.13;;;24.60;71.30;;;;;;5029711;28;20407;-57
2023/09/09 08:41:03;;;;;;;28.73;22.67;;;24.70;71.00;;;;;;5028354;28;20164;-57
2023/09/09 08:43:55;;;;;;;24.95;22.15;;;24.70;71.10;;;;;;5027395;28;20069;-57
2023/09/09 08:46:28;;;;;;;22.42;20.05;;;24.70;70.50;;;;;;5022759;28;20040;-57
2023/09/09 08:48:58;;;;;;;30.38;25.40;;;24.80;70.20;;;;;;5030101;28;20489;-55
2023/09/09 08:51:34;;;;;;;26.10;22.92;;;24.90;70.20;;;;;;5032198;28;20103;-56
2023/09/09 08:54:06;;;;;;;26.85;23.90;;;24.90;70.30;;;;;;5031475;28;20045;-56
2023/09/09 08:56:33;;;;;;;33.55;23.55;;;25.00;70.40;;;;;;5019076;28;20128;-55
2023/09/09 08:59:00;;;;;;;26.42;23.55;;;25.10;70.00;;;;;;5032269;28;20747;-57
2023/09/09 09:01:27;;;;;;;26.38;23.67;;;25.10;70.10;;;;;;5027988;28;20150;-57
2023/09/09 09:03:55;;;;;;;27.85;25.05;;;25.20;70.10;;;;;;5008125;28;20052;-57
2023/09/09 09:06:23;;;;;;;25.75;22.67;;;25.20;70.40;;;;;;5027710;28;20041;-56
2023/09/09 09:08:50;;;;;;;27.65;21.73;;;25.30;70.20;;;;;;4996707;28;20065;-57
2023/09/09 09:11:18;;;;;;;32.60;26.05;;;25.40;70.50;;;;;;5026480;28;20041;-57
2023/09/09 09:13:47;;;;;;;28.13;25.40;;;25.40;69.60;;;;;;5027484;28;20717;-57
2023/09/09 09:16:14;;;;;;;31.58;26.05;;;25.50;69.90;;;;;;5029832;28;20487;-56
2023/09/09 09:18:40;;;;;;;28.45;23.83;;;25.60;69.50;;;;;;5027839;28;20054;-57
2023/09/09 09:21:09;;;;;;;31.73;26.08;;;25.60;69.20;;;;;;5030097;28;20461;-57
2023/09/09 09:23:57;;;;;;;31.92;28.58;;;25.70;70.20;;;;;;5025475;28;20045;-57
2023/09/09 09:26:29;;;;;;;33.58;27.35;;;25.80;69.50;;;;;;5022432;28;20029;-57
2023/09/09 09:29:01;;;;;;;29.92;26.85;;;25.90;68.70;;;;;;5025472;28;20037;-56
2023/09/09 09:31:28;;;;;;;28.73;25.58;;;25.90;68.20;;;;;;5026589;28;20049;-57
2023/09/09 09:33:57;;;;;;;29.90;26.42;;;26.00;67.90;;;;;;5028044;28;20083;-57
2023/09/09 09:36:24;;;;;;;31.33;27.58;;;26.00;68.20;;;;;;5028032;28;20553;-57
2023/09/09 09:38:51;;;;;;;29.77;24.98;;;26.10;68.20;;;;;;5025156;28;20045;-57
2023/09/09 09:41:19;;;;;;;26.10;23.25;;;26.10;67.40;;;;;;5029841;28;20045;-58
2023/09/09 09:43:47;;;;;;;23.50;21.02;;;26.20;67.00;;;;;;5031181;28;20515;-57
2023/09/09 09:46:19;;;;;;;28.20;22.90;;;26.20;66.50;;;;;;5024721;28;20053;-57
2023/09/09 09:48:46;;;;;;;;;;;26.30;66.50;;;;;;5025834;28;20688;-57
2023/09/09 09:51:13;;;;;;;21.65;19.25;;;26.40;66.40;;;;;;5028743;28;20051;-57
2023/09/09 09:53:49;;;;;;;21.35;19.08;;;26.40;65.90;;;;;;5022685;28;20555;-58
2023/09/09 09:56:16;;;;;;;20.98;18.75;;;26.40;66.10;;;;;;5027963;28;20111;-57
2023/09/09 09:58:44;;;;;;;22.55;19.67;;;26.50;65.60;;;;;;5027775;28;20581;-57
2023/09/09 10:01:11;;;;;;;20.25;18.15;;;26.60;66.30;;;;;;5027110;28;20068;-58
2023/09/09 10:03:45;;;;;;;19.25;17.02;;;26.60;65.90;;;;;;5025000;28;20038;-59
2023/09/09 10:06:16;;;;;;;21.35;17.73;;;26.60;65.20;;;;;;5029299;28;20068;-57
2023/09/09 10:08:55;;;;;;;17.83;15.93;;;26.70;65.00;;;;;;5027477;28;20088;-57
2023/09/09 10:11:27;;;;;;;18.83;17.02;;;26.70;65.10;;;;;;5029668;28;20041;-56
2023/09/09 10:14:09;;;;;;;17.30;15.05;;;26.80;64.60;;;;;;5030384;28;20559;-57
2023/09/09 10:16:37;;;;;;;16.38;14.68;;;26.90;64.00;;;;;;5023257;28;20064;-55
2023/09/09 10:19:05;;;;;;;16.67;14.90;;;27.00;64.60;;;;;;5030549;28;20041;-57
2023/09/09 10:21:34;;;;;;;16.05;14.48;;;27.00;63.70;;;;;;5029251;28;20045;-56
2023/09/09 10:24:09;;;;;;;18.73;16.73;;;27.10;64.20;;;;;;5025536;28;20044;-55
2023/09/09 10:26:37;;;;;;;17.25;14.93;;;27.10;63.30;;;;;;5026357;28;20070;-55
2023/09/09 10:29:05;;;;;;;16.00;14.32;;;27.10;63.40;;;;;;5029473;28;20099;-56
2023/09/09 10:31:34;;;;;;;18.30;15.40;;;27.20;63.60;;;;;;5030373;28;20088;-56
2023/09/09 10:34:02;;;;;;;17.80;15.90;;;27.30;63.40;;;;;;5028817;28;20720;-55
2023/09/09 10:36:36;;;;;;;16.85;15.07;;;27.30;62.70;;;;;;5026772;28;20147;-57
2023/09/09 10:39:20;;;;;;;16.45;13.60;;;27.40;62.20;;;;;;5024292;28;20041;-57
2023/09/09 10:41:48;;;;;;;15.05;13.27;;;27.40;62.30;;;;;;5029089;28;20044;-57
2023/09/09 10:44:15;;;;;;;17.65;15.43;;;27.50;62.10;;;;;;5029252;28;20099;-56
2023/09/09 10:46:42;;;;;;;17.63;13.45;;;27.50;62.70;;;;;;5027203;28;20166;-56
2023/09/09 10:49:13;;;;;;;17.08;14.05;;;27.60;62.60;;;;;;5029110;28;20041;-57
2023/09/09 10:51:49;;;;;;;18.42;14.98;;;27.60;62.90;;;;;;5026433;28;20120;-57
2023/09/09 10:54:21;;;;;;;15.18;13.23;;;27.70;61.50;;;;;;5023139;28;20069;-57
2023/09/09 10:56:50;;;;;;;12.10;10.90;;;27.80;62.20;;;;;;5023548;28;20070;-57
2023/09/09 10:59:19;;;;;;;10.45;8.23;;;27.80;59.80;;;;;;5052166;22;20060;-54
2023/09/09 11:02:12;;;;;;;10.98;9.93;;;27.90;57.60;;;;;;5020183;28;20084;-54
2023/09/09 11:04:40;;;;;;;11.00;10.00;;;28.00;57.60;;;;;;5027171;28;20072;-54
2023/09/09 11:07:09;;;;;;;10.35;9.27;;;28.00;56.50;;;;;;5029302;28;20046;-53
2023/09/09 11:09:37;;;;;;;12.63;9.63;;;28.00;56.80;;;;;;5029580;28;20068;-54
2023/09/09 11:12:12;;;;;;;12.55;9.13;;;28.10;56.30;;;;;;5023533;28;20088;-54
2023/09/09 11:14:46;;;;;;;10.32;8.70;;;28.20;55.00;;;;;;5021136;28;20042;-53
2023/09/09 11:17:13;;;;;;;8.05;7.25;;;28.20;56.30;;;;;;5021298;28;20121;-53
2023/09/09 11:19:42;;;;;;;8.48;7.50;;;28.20;55.00;;;;;;5027322;28;20121;-54
2023/09/09 11:22:13;;;;;;;7.50;6.88;;;28.30;54.50;;;;;;5024393;28;20208;-54
2023/09/09 11:24:40;;;;;;;8.85;7.45;;;28.30;54.40;;;;;;5025562;28;20056;-54
2023/09/09 11:27:07;;;;;;;7.80;7.10;;;28.40;54.20;;;;;;5023404;28;20041;-54
2023/09/09 11:29:34;;;;;;;7.40;6.80;;;28.40;54.00;;;;;;5024364;28;20555;-54
2023/09/09 11:32:09;;;;;;;7.00;6.30;;;28.50;53.40;;;;;;5025736;28;20053;-53
2023/09/09 11:34:36;;;;;;;7.30;6.70;;;28.50;53.30;;;;;;5029156;28;20057;-54
2023/09/09 11:37:03;;;;;;;7.15;6.53;;;28.60;51.80;;;;;;5021932;28;20041;-54
2023/09/09 11:39:41;;;;;;;6.70;6.10;;;28.60;51.80;;;;;;5020708;28;20068;-53
2023/09/09 11:42:08;;;;;;;7.18;6.57;;;28.70;51.30;;;;;;5025940;28;20053;-54
2023/09/09 11:44:41;;;;;;;7.55;6.47;;;28.70;51.80;;;;;;5030562;28;20087;-53
2023/09/09 11:47:09;;;;;;;6.03;5.43;;;28.80;51.40;;;;;;5029129;28;20041;-53
2023/09/09 11:49:38;;;;;;;5.72;5.20;;;28.80;51.10;;;;;;5024654;28;20100;-54
2023/09/09 11:52:05;;;;;;;6.25;5.65;;;28.90;50.90;;;;;;5025877;28;20519;-54
2023/09/09 11:54:32;;;;;;;5.53;5.00;;;28.90;50.60;;;;;;5020932;28;20121;-53
2023/09/09 11:57:09;;;;;;;5.80;4.75;;;29.00;49.90;;;;;;5021789;28;20050;-53
2023/09/09 11:59:50;;;;;;;5.68;5.07;;;29.00;48.80;;;;;;5024316;28;20080;-54
2023/09/09 12:02:21;;;;;;;5.05;4.65;;;29.10;48.70;;;;;;5018738;28;20156;-54
2023/09/09 12:05:01;;;;;;;5.50;4.60;;;29.20;48.10;;;;;;5023054;28;20492;-54
2023/09/09 12:07:33;;;;;;;5.43;4.93;;;29.20;47.80;;;;;;5021778;28;20652;-51
2023/09/09 12:10:04;;;;;;;4.70;4.30;;;29.30;48.00;;;;;;5023289;28;20109;-52
2023/09/09 12:12:31;;;;;;;4.82;4.47;;;29.30;48.60;;;;;;5018063;28;20108;-54
2023/09/09 12:14:59;;;;;;;5.03;4.57;;;29.40;48.30;;;;;;5029345;28;20128;-54
2023/09/09 12:17:27;;;;;;;5.50;4.00;;;29.40;47.10;;;;;;5021807;28;20100;-55
2023/09/09 12:19:58;;;;;;;3.35;3.05;;;29.50;47.20;;;;;;5019570;28;20041;-53
2023/09/09 12:22:36;;;;;;;4.50;3.78;;;29.60;47.00;;;;;;5024300;28;20038;-54
2023/09/09 12:25:05;;;;;;;4.75;3.40;;;29.60;46.80;;;;;;5020663;28;20048;-54
2023/09/09 12:27:45;;;;;;;4.10;3.55;;;29.70;45.50;;;;;;5026701;28;20037;-54
2023/09/09 12:30:37;;;;;;;4.03;3.72;;;29.70;45.60;;;;;;5024112;28;20424;-54
2023/09/09 12:33:11;;;;;;;4.00;3.70;;;29.80;46.20;;;;;;5018592;28;20048;-54
2023/09/09 12:35:49;;;;;;;4.63;3.78;;;29.90;45.50;;;;;;5026134;28;20044;-53
2023/09/09 12:38:17;;;;;;;4.28;3.88;;;30.00;45.30;;;;;;5021505;28;20503;-53
2023/09/09 12:40:47;;;;;;;3.88;3.20;;;30.00;45.60;;;;;;5019372;28;20035;-53
2023/09/09 12:43:14;;;;;;;3.65;3.35;;;30.10;45.70;;;;;;5024543;28;20471;-54
2023/09/09 12:45:48;;;;;;;4.32;3.92;;;30.10;44.80;;;;;;5028478;28;20033;-53
2023/09/09 12:48:15;;;;;;;4.45;4.05;;;30.20;44.60;;;;;;5018675;28;20045;-53
2023/09/09 12:50:41;;;;;;;6.25;3.53;;;30.20;45.80;;;;;;5023612;28;20092;-53